Time;durP1;ratioP1;P1;durP2;ratioP2;P2;SDS_P1;SDS_P2;PMS_P1;PMS_P2;Temp;Humidity;BMP_temperature;BMP_pressure;BME280_temperature;BME280_humidity;BME280_pressure;Samples;Min_cycle;Max_cycle;Signal;HPM_P1;HPM_P2
2021/04/10 00:02:13;;;;;;;26.83;8.65;;;7.10;90.40;;;;;;5033376;28;20535;-83
2021/04/10 00:04:39;;;;;;;20.08;8.38;;;7.10;90.50;;;;;;5032590;28;20025;-83
2021/04/10 00:07:05;;;;;;;22.25;8.80;;;7.00;90.60;;;;;;5033845;28;20021;-86
2021/04/10 00:09:31;;;;;;;19.45;7.68;;;7.00;90.60;;;;;;5033477;28;20389;-85
2021/04/10 00:11:56;;;;;;;19.42;9.13;;;7.00;90.70;;;;;;5033437;28;20508;-85
2021/04/10 00:14:23;;;;;;;20.60;8.05;;;6.90;90.80;;;;;;5034278;28;20363;-85
2021/04/10 00:16:49;;;;;;;23.88;8.23;;;6.90;90.80;;;;;;5032060;28;20036;-86
2021/04/10 00:19:14;;;;;;;22.17;8.85;;;6.90;90.90;;;;;;5012768;28;20392;-85
2021/04/10 00:21:40;;;;;;;17.75;7.68;;;6.90;91.00;;;;;;5010342;28;20482;-86
2021/04/10 00:24:12;;;;;;;14.70;7.20;;;6.80;91.00;;;;;;5015471;28;20032;-86
2021/04/10 00:26:38;;;;;;;13.48;6.28;;;6.80;91.00;;;;;;5033080;28;20021;-85
2021/04/10 00:29:04;;;;;;;18.98;6.63;;;6.80;91.00;;;;;;5009601;28;20030;-86
2021/04/10 00:31:29;;;;;;;16.95;5.28;;;6.70;91.10;;;;;;5015332;28;20025;-87
2021/04/10 00:33:55;;;;;;;13.40;5.63;;;6.70;91.10;;;;;;5033066;28;20109;-85
2021/04/10 00:36:20;;;;;;;17.20;6.03;;;6.70;91.10;;;;;;5011007;28;20079;-85
2021/04/10 00:38:46;;;;;;;13.88;4.97;;;6.60;91.20;;;;;;5015563;28;20025;-85
2021/04/10 00:41:12;;;;;;;15.65;4.47;;;6.60;91.20;;;;;;5013929;28;20053;-86
2021/04/10 00:43:38;;;;;;;12.80;4.25;;;6.60;91.20;;;;;;5048645;28;20017;-86
2021/04/10 00:46:06;;;;;;;14.27;3.78;;;6.60;91.30;;;;;;5031650;28;20040;-86
2021/04/10 00:48:32;;;;;;;10.40;3.53;;;6.60;91.30;;;;;;5033614;28;20039;-86
2021/04/10 00:50:57;;;;;;;13.90;3.50;;;6.50;91.30;;;;;;5031818;28;20032;-86
2021/04/10 00:53:25;;;;;;;13.45;3.80;;;6.60;91.30;;;;;;5010928;28;20037;-85
2021/04/10 00:55:55;;;;;;;12.85;3.58;;;6.50;91.30;;;;;;5032911;28;20087;-86
2021/04/10 00:58:20;;;;;;;14.25;3.85;;;6.50;91.40;;;;;;5033807;28;20018;-86
2021/04/10 01:00:46;;;;;;;13.30;3.60;;;6.50;91.40;;;;;;5032147;28;20052;-86
2021/04/10 01:03:12;;;;;;;12.80;3.20;;;6.50;91.40;;;;;;5012333;28;20115;-86
2021/04/10 01:05:37;;;;;;;12.95;3.33;;;6.50;91.40;;;;;;5028300;28;20026;-85
2021/04/10 01:08:04;;;;;;;11.35;4.07;;;6.50;91.40;;;;;;5015037;28;20029;-85
2021/04/10 01:10:31;;;;;;;13.85;2.95;;;6.50;91.50;;;;;;5032757;28;20037;-85
2021/04/10 01:13:27;;;;;;;8.27;2.85;;;6.50;91.50;;;;;;5032968;28;20025;-85
2021/04/10 01:16:12;;;;;;;11.02;4.07;;;6.50;91.50;;;;;;5005970;28;20047;-86
2021/04/10 01:18:52;;;;;;;9.27;3.63;;;6.50;91.50;;;;;;4996563;28;20030;-84
2021/04/10 01:21:39;;;;;;;6.90;2.92;;;6.40;91.50;;;;;;5031353;28;20099;-84
2021/04/10 01:24:32;;;;;;;12.60;4.10;;;6.40;91.50;;;;;;5015422;28;20041;-84
2021/04/10 01:27:03;;;;;;;;;;;6.40;91.50;;;;;;5015032;28;20061;-85
2021/04/10 01:29:34;;;;;;;19.17;4.15;;;6.40;91.60;;;;;;5020347;28;19905;-85
2021/04/10 01:32:00;;;;;;;12.45;3.40;;;6.40;91.60;;;;;;5022155;28;20029;-86
2021/04/10 01:34:31;;;;;;;16.85;3.75;;;6.40;91.60;;;;;;5013450;28;20172;-85
2021/04/10 01:37:06;;;;;;;11.68;2.65;;;6.40;91.60;;;;;;5014604;28;20377;-85
2021/04/10 01:39:34;;;;;;;9.45;3.13;;;6.30;91.60;;;;;;5015108;28;20061;-85
2021/04/10 01:42:01;;;;;;;12.43;2.88;;;6.40;91.60;;;;;;5031884;28;20880;-86
2021/04/10 01:44:27;;;;;;;9.90;2.92;;;6.40;91.70;;;;;;5014956;28;20025;-85
2021/04/10 01:46:55;;;;;;;12.15;2.28;;;6.30;91.70;;;;;;5032401;28;20025;-85
2021/04/10 01:49:21;;;;;;;11.50;2.50;;;6.30;91.60;;;;;;5038343;28;20029;-85
2021/04/10 01:51:49;;;;;;;9.80;2.50;;;6.30;91.60;;;;;;5051589;28;20111;-85
2021/04/10 01:54:14;;;;;;;15.70;3.65;;;6.30;91.60;;;;;;5011595;28;20052;-85
2021/04/10 01:56:44;;;;;;;12.77;2.30;;;6.30;91.60;;;;;;5015435;28;20030;-86
2021/04/10 01:59:12;;;;;;;11.10;3.22;;;6.30;91.60;;;;;;5015705;28;20029;-86
2021/04/10 02:01:41;;;;;;;11.85;2.30;;;6.30;91.60;;;;;;5014154;28;20037;-85
2021/04/10 02:04:09;;;;;;;15.98;3.65;;;6.20;91.60;;;;;;5015382;28;20029;-84
2021/04/10 02:06:37;;;;;;;19.38;3.03;;;6.20;91.60;;;;;;5015702;28;20029;-84
2021/04/10 02:09:04;;;;;;;10.57;1.88;;;6.20;91.60;;;;;;5031732;28;20064;-84
2021/04/10 02:11:32;;;;;;;13.75;3.03;;;6.20;91.60;;;;;;5012009;28;20030;-85
2021/04/10 02:13:58;;;;;;;11.30;2.38;;;6.20;91.60;;;;;;5014599;28;20870;-84
2021/04/10 02:16:25;;;;;;;10.95;2.47;;;6.20;91.60;;;;;;5014877;28;20066;-84
2021/04/10 02:18:51;;;;;;;11.45;1.88;;;6.20;91.60;;;;;;5030627;28;20017;-84
2021/04/10 02:21:25;;;;;;;8.70;2.60;;;6.10;91.60;;;;;;5016326;28;20037;-84
2021/04/10 02:23:50;;;;;;;8.70;2.25;;;6.10;91.60;;;;;;5018175;28;20022;-84
2021/04/10 02:26:16;;;;;;;18.60;2.90;;;6.10;91.60;;;;;;5007887;28;20026;-85
2021/04/10 02:28:42;;;;;;;11.50;2.70;;;6.10;91.60;;;;;;5014384;28;20304;-84
2021/04/10 02:31:08;;;;;;;9.00;3.00;;;6.00;91.70;;;;;;5024040;28;20026;-85
2021/04/10 02:33:40;;;;;;;10.73;2.60;;;6.00;91.70;;;;;;5016322;28;20379;-85
2021/04/10 02:36:09;;;;;;;11.15;2.45;;;6.00;91.80;;;;;;5006028;28;20030;-84
2021/04/10 02:38:35;;;;;;;12.57;3.13;;;5.90;91.80;;;;;;5013776;28;20030;-84
2021/04/10 02:41:08;;;;;;;9.27;2.30;;;5.90;91.80;;;;;;5013253;28;20041;-85
2021/04/10 02:43:37;;;;;;;13.85;2.83;;;6.00;91.90;;;;;;5015529;28;20036;-86
2021/04/10 02:46:03;;;;;;;10.45;2.55;;;5.90;91.90;;;;;;5013040;28;20383;-86
2021/04/10 02:48:37;;;;;;;9.35;3.15;;;5.90;91.90;;;;;;5014361;28;20065;-85
2021/04/10 02:51:04;;;;;;;11.82;2.78;;;5.90;91.90;;;;;;5012461;28;20038;-85
2021/04/10 02:53:34;;;;;;;11.90;3.13;;;5.90;91.90;;;;;;5026807;28;20045;-86
2021/04/10 02:56:01;;;;;;;9.82;3.03;;;5.90;91.90;;;;;;5016903;28;20105;-86
2021/04/10 02:58:29;;;;;;;11.95;3.25;;;5.90;91.90;;;;;;5016006;28;20033;-85
2021/04/10 03:00:56;;;;;;;13.25;3.05;;;5.90;92.00;;;;;;5017072;28;20065;-86
2021/04/10 03:03:23;;;;;;;11.05;3.08;;;5.90;92.00;;;;;;5034444;28;20029;-85
2021/04/10 03:05:49;;;;;;;10.13;2.47;;;5.90;92.00;;;;;;5016206;28;20021;-84
2021/04/10 03:08:20;;;;;;;9.77;2.78;;;5.90;92.00;;;;;;5017078;28;20068;-83
2021/04/10 03:10:52;;;;;;;11.73;2.97;;;5.90;92.30;;;;;;5034159;28;20109;-83
2021/04/10 03:13:19;;;;;;;11.40;3.30;;;5.90;92.10;;;;;;5017257;28;20063;-84
2021/04/10 03:15:49;;;;;;;13.10;3.03;;;5.90;92.10;;;;;;5016820;28;20041;-84
2021/04/10 03:18:16;;;;;;;13.07;3.03;;;5.90;92.10;;;;;;5017440;28;20026;-84
2021/04/10 03:20:42;;;;;;;13.75;3.55;;;5.90;92.10;;;;;;5013067;28;20120;-83
2021/04/10 03:23:08;;;;;;;13.07;3.28;;;5.90;92.10;;;;;;5014887;28;20121;-83
2021/04/10 03:25:34;;;;;;;10.68;3.42;;;5.80;92.10;;;;;;5030883;28;20041;-84
2021/04/10 03:28:00;;;;;;;17.83;3.95;;;5.80;92.10;;;;;;5016565;28;20025;-84
2021/04/10 03:30:26;;;;;;;17.02;3.88;;;5.80;92.20;;;;;;5016214;28;20029;-84
2021/04/10 03:32:52;;;;;;;14.15;3.63;;;5.80;92.20;;;;;;5011449;28;20100;-84
2021/04/10 03:35:18;;;;;;;15.13;4.07;;;5.70;92.20;;;;;;5016813;28;20026;-85
2021/04/10 03:37:44;;;;;;;13.32;3.72;;;5.70;92.30;;;;;;5034186;28;20044;-83
2021/04/10 03:40:10;;;;;;;19.42;3.80;;;5.70;92.30;;;;;;5034337;28;20033;-83
2021/04/10 03:42:43;;;;;;;10.88;3.90;;;5.60;92.30;;;;;;5031594;28;20017;-83
2021/04/10 03:45:20;;;;;;;11.05;3.67;;;5.70;92.40;;;;;;5019430;28;20026;-83
2021/04/10 03:47:46;;;;;;;10.15;3.63;;;5.60;92.40;;;;;;5034347;28;20465;-83
2021/04/10 03:50:13;;;;;;;12.75;3.85;;;5.60;92.40;;;;;;5015245;28;20037;-83
2021/04/10 03:52:39;;;;;;;18.13;4.05;;;5.60;92.50;;;;;;5033985;28;20057;-83
2021/04/10 03:55:06;;;;;;;12.60;3.80;;;5.60;92.50;;;;;;5033679;28;20499;-83
2021/04/10 03:57:33;;;;;;;12.88;4.75;;;5.60;92.50;;;;;;5014078;28;20029;-83
2021/04/10 03:59:59;;;;;;;17.75;4.82;;;5.60;92.50;;;;;;5015627;28;20040;-84
2021/04/10 04:02:25;;;;;;;14.70;4.72;;;5.60;92.60;;;;;;5032983;28;20021;-83
2021/04/10 04:04:51;;;;;;;16.38;4.85;;;5.60;92.60;;;;;;5027923;28;20048;-83
2021/04/10 04:07:16;;;;;;;18.67;4.70;;;5.60;92.60;;;;;;5048845;28;20107;-83
2021/04/10 04:09:42;;;;;;;13.00;4.10;;;5.60;92.60;;;;;;5016495;28;20160;-84
2021/04/10 04:12:09;;;;;;;15.82;5.20;;;5.60;92.70;;;;;;5011736;28;20032;-85
2021/04/10 04:14:35;;;;;;;12.98;4.75;;;5.60;92.70;;;;;;5016568;28;20062;-85
2021/04/10 04:17:01;;;;;;;16.35;4.40;;;5.60;92.70;;;;;;5015106;28;20029;-85
2021/04/10 04:19:27;;;;;;;11.25;4.55;;;5.60;92.70;;;;;;5015337;28;20041;-85
2021/04/10 04:21:53;;;;;;;15.13;4.57;;;5.60;92.70;;;;;;5033595;28;20021;-85
2021/04/10 04:24:18;;;;;;;11.88;4.75;;;5.60;92.70;;;;;;5032458;28;20017;-85
2021/04/10 04:26:44;;;;;;;13.77;5.10;;;5.60;92.80;;;;;;5015841;28;20488;-85
2021/04/10 04:29:09;;;;;;;14.80;5.40;;;5.50;92.80;;;;;;5030562;28;20025;-85
2021/04/10 04:31:35;;;;;;;19.17;5.60;;;5.60;92.80;;;;;;5048385;28;20503;-85
2021/04/10 04:34:00;;;;;;;13.45;4.47;;;5.60;92.80;;;;;;5015977;28;20424;-85
2021/04/10 04:36:26;;;;;;;12.98;6.03;;;5.60;92.80;;;;;;5032189;28;20363;-85
2021/04/10 04:38:51;;;;;;;17.77;5.35;;;5.60;92.90;;;;;;5015703;28;20189;-84
2021/04/10 04:41:17;;;;;;;16.38;5.72;;;5.60;92.80;;;;;;5015429;28;20624;-85
2021/04/10 04:43:42;;;;;;;16.42;5.30;;;5.60;92.80;;;;;;5014821;28;20029;-85
2021/04/10 04:46:08;;;;;;;18.17;5.38;;;5.50;92.90;;;;;;5015380;28;20498;-84
2021/04/10 04:48:34;;;;;;;14.07;5.05;;;5.60;92.90;;;;;;5010449;28;20032;-85
2021/04/10 04:50:59;;;;;;;20.73;6.47;;;5.50;92.90;;;;;;5014947;28;20029;-85
2021/04/10 04:53:25;;;;;;;20.70;6.38;;;5.50;93.00;;;;;;5014877;28;20045;-85
2021/04/10 04:55:50;;;;;;;16.52;6.40;;;5.50;93.00;;;;;;5016538;28;20025;-84
2021/04/10 04:58:16;;;;;;;23.13;7.75;;;5.50;93.10;;;;;;5014631;28;20037;-85
2021/04/10 05:00:41;;;;;;;15.27;6.22;;;5.50;93.10;;;;;;5011566;28;20034;-85
2021/04/10 05:03:07;;;;;;;16.83;6.53;;;5.50;93.10;;;;;;5011727;28;20032;-85
2021/04/10 05:05:33;;;;;;;20.38;7.13;;;5.50;93.10;;;;;;5010712;28;20030;-84
2021/04/10 05:07:58;;;;;;;19.30;7.40;;;5.50;93.10;;;;;;5013604;28;20535;-85
2021/04/10 05:10:24;;;;;;;16.42;6.70;;;5.50;93.10;;;;;;5015264;28;20215;-85
2021/04/10 05:12:52;;;;;;;19.60;6.43;;;5.50;93.10;;;;;;5014945;28;20022;-85
2021/04/10 05:15:17;;;;;;;18.50;6.85;;;5.50;93.10;;;;;;5015135;28;20029;-85
2021/04/10 05:17:43;;;;;;;15.35;7.13;;;5.60;93.40;;;;;;5014987;28;20029;-85
2021/04/10 05:20:09;;;;;;;20.05;8.00;;;5.50;93.10;;;;;;5014669;28;20045;-84
2021/04/10 05:22:35;;;;;;;15.52;7.00;;;5.60;93.10;;;;;;5033935;28;20068;-85
2021/04/10 05:25:01;;;;;;;14.98;6.50;;;5.60;93.10;;;;;;5037123;28;20033;-85
2021/04/10 05:27:26;;;;;;;20.27;7.80;;;5.60;93.10;;;;;;5018225;28;20045;-84
2021/04/10 05:29:52;;;;;;;17.48;7.22;;;5.60;93.10;;;;;;5036228;28;20071;-85
2021/04/10 05:32:17;;;;;;;18.13;6.35;;;5.60;93.10;;;;;;5017343;28;20029;-85
2021/04/10 05:34:43;;;;;;;17.75;6.55;;;5.60;93.10;;;;;;5017083;28;20017;-84
2021/04/10 05:37:08;;;;;;;19.15;7.75;;;5.60;93.10;;;;;;5011374;28;20393;-85
2021/04/10 05:39:34;;;;;;;20.02;7.82;;;5.60;93.10;;;;;;5036758;28;20433;-85
2021/04/10 05:42:00;;;;;;;17.58;7.45;;;5.70;93.10;;;;;;5035686;28;20108;-85
2021/04/10 05:44:25;;;;;;;17.20;7.25;;;5.70;93.30;;;;;;5018931;28;20024;-84
2021/04/10 05:46:52;;;;;;;20.25;7.82;;;5.80;93.00;;;;;;5018065;28;20397;-85
2021/04/10 05:49:18;;;;;;;17.75;6.95;;;5.80;92.90;;;;;;5033895;28;20035;-84
2021/04/10 05:51:43;;;;;;;22.30;8.10;;;5.70;92.90;;;;;;5039198;28;20057;-84
2021/04/10 05:54:09;;;;;;;19.42;8.07;;;5.80;92.80;;;;;;5036464;28;20176;-85
2021/04/10 05:56:36;;;;;;;23.27;8.07;;;5.80;92.80;;;;;;5018441;28;20036;-85
2021/04/10 05:59:01;;;;;;;19.35;8.50;;;5.80;92.70;;;;;;5017290;28;20025;-85
2021/04/10 06:01:28;;;;;;;16.20;7.35;;;5.80;92.70;;;;;;5033957;28;20107;-85
2021/04/10 06:03:57;;;;;;;22.80;7.47;;;5.90;92.70;;;;;;5017533;28;20444;-85
2021/04/10 06:06:23;;;;;;;21.17;8.02;;;5.90;92.60;;;;;;5015318;28;20063;-85
2021/04/10 06:08:49;;;;;;;16.08;6.70;;;5.90;92.60;;;;;;5036140;28;20030;-84
2021/04/10 06:11:15;;;;;;;20.15;7.55;;;5.90;92.80;;;;;;5018223;28;20037;-85
2021/04/10 06:13:40;;;;;;;15.95;6.68;;;6.00;92.40;;;;;;5017296;28;20026;-85
2021/04/10 06:16:10;;;;;;;17.23;6.53;;;6.00;92.40;;;;;;5035314;28;20029;-84
2021/04/10 06:18:35;;;;;;;20.70;6.45;;;6.00;92.40;;;;;;5018091;28;20079;-85
2021/04/10 06:21:02;;;;;;;17.33;6.68;;;6.10;92.40;;;;;;5018437;28;20069;-83
2021/04/10 06:23:27;;;;;;;13.13;5.40;;;6.10;92.40;;;;;;5018430;28;20060;-83
2021/04/10 06:25:53;;;;;;;17.50;6.55;;;6.20;92.30;;;;;;5018518;28;20422;-84
2021/04/10 06:28:18;;;;;;;15.40;5.97;;;6.30;92.20;;;;;;5017474;28;20052;-84
2021/04/10 06:30:44;;;;;;;11.77;5.47;;;6.30;92.10;;;;;;5017394;28;20041;-84
2021/04/10 06:33:09;;;;;;;12.43;5.07;;;6.40;92.00;;;;;;5034198;28;20064;-85
2021/04/10 06:35:36;;;;;;;19.10;5.47;;;6.50;91.90;;;;;;5034155;28;20029;-84
2021/04/10 06:38:02;;;;;;;14.93;4.82;;;6.50;91.70;;;;;;5034379;28;20057;-84
2021/04/10 06:40:29;;;;;;;16.17;4.15;;;6.50;91.60;;;;;;5014400;28;20072;-83
2021/04/10 06:42:56;;;;;;;15.45;4.60;;;6.60;91.50;;;;;;5012935;28;20030;-84
2021/04/10 06:45:22;;;;;;;16.17;5.13;;;6.60;91.40;;;;;;5005710;28;20209;-84
2021/04/10 06:47:50;;;;;;;14.65;4.55;;;6.70;91.20;;;;;;5017340;28;20029;-84
2021/04/10 06:50:16;;;;;;;18.75;5.07;;;6.70;91.20;;;;;;5033884;28;20026;-85
2021/04/10 06:52:42;;;;;;;15.90;4.40;;;6.70;90.90;;;;;;5034786;28;20041;-84
2021/04/10 06:55:16;;;;;;;16.08;4.75;;;6.70;90.70;;;;;;5016784;28;20025;-85
2021/04/10 06:57:56;;;;;;;14.60;4.68;;;6.80;90.80;;;;;;5015903;28;20053;-85
2021/04/10 07:00:23;;;;;;;15.23;4.30;;;6.80;90.50;;;;;;5017810;28;20064;-86
2021/04/10 07:02:49;;;;;;;12.05;4.43;;;6.90;90.60;;;;;;5040909;28;20028;-85
2021/04/10 07:05:15;;;;;;;9.00;3.63;;;6.90;90.30;;;;;;5019002;28;20029;-86
2021/04/10 07:07:44;;;;;;;11.40;3.90;;;6.90;90.30;;;;;;5037393;28;20033;-85
2021/04/10 07:10:12;;;;;;;12.02;3.40;;;6.90;90.10;;;;;;5020574;28;20463;-85
2021/04/10 07:12:38;;;;;;;12.48;3.97;;;6.90;90.10;;;;;;5021414;28;20021;-86
2021/04/10 07:15:12;;;;;;;10.75;3.60;;;6.90;90.20;;;;;;5053806;28;20032;-85
2021/04/10 07:17:38;;;;;;;11.10;4.68;;;6.90;90.00;;;;;;5018051;28;20490;-83
2021/04/10 07:20:23;;;;;;;14.52;4.78;;;7.00;90.00;;;;;;5033949;28;20034;-83
2021/04/10 07:23:00;;;;;;;11.73;3.97;;;7.00;89.60;;;;;;5016989;28;20112;-83
2021/04/10 07:25:26;;;;;;;14.85;4.75;;;7.00;90.00;;;;;;5035027;28;20032;-84
2021/04/10 07:27:53;;;;;;;18.52;4.68;;;7.10;90.00;;;;;;5034812;28;20018;-85
2021/04/10 07:30:19;;;;;;;10.75;4.10;;;7.10;89.40;;;;;;5034878;28;20021;-85
2021/04/10 07:32:45;;;;;;;11.75;3.22;;;7.20;89.50;;;;;;5017256;28;20031;-85
2021/04/10 07:35:15;;;;;;;15.25;4.20;;;7.20;89.60;;;;;;5034181;28;20026;-85
2021/04/10 07:37:47;;;;;;;15.93;4.88;;;7.30;89.40;;;;;;5033553;28;20025;-85
2021/04/10 07:40:23;;;;;;;13.48;3.47;;;7.20;88.90;;;;;;5016283;28;20041;-85
2021/04/10 07:42:49;;;;;;;11.93;3.95;;;7.20;88.80;;;;;;5023713;28;20026;-85
2021/04/10 07:45:20;;;;;;;12.20;3.53;;;7.20;88.20;;;;;;5016962;28;20033;-85
2021/04/10 09:56:12;;;;;;;13.70;5.38;;;8.20;83.70;;;;;;4478818;27;20056;-68
2021/04/10 09:58:40;;;;;;;15.15;5.53;;;8.20;83.60;;;;;;4908022;29;22613;-67
2021/04/10 10:01:19;;;;;;;18.50;6.00;;;8.20;83.40;;;;;;4910570;29;20111;-67
2021/04/10 10:03:47;;;;;;;13.70;4.65;;;8.20;83.70;;;;;;4912388;29;20027;-67
2021/04/10 10:06:24;;;;;;;15.25;4.63;;;8.30;84.10;;;;;;4925756;29;20374;-68
2021/04/10 10:08:50;;;;;;;12.23;4.90;;;8.50;84.20;;;;;;4928401;29;20355;-68
2021/04/10 10:11:17;;;;;;;13.73;4.47;;;8.50;83.80;;;;;;4927095;29;20043;-68
2021/04/10 10:13:43;;;;;;;8.60;3.80;;;8.50;83.40;;;;;;4928835;29;20568;-68
2021/04/10 10:16:09;;;;;;;9.60;3.70;;;8.50;83.30;;;;;;4930089;29;20043;-68
2021/04/10 10:18:42;;;;;;;16.23;4.25;;;8.40;83.00;;;;;;4929746;29;20512;-68
2021/04/10 10:21:17;;;;;;;10.77;3.78;;;8.30;83.30;;;;;;4934296;28;20561;-68
2021/04/10 10:23:49;;;;;;;12.23;4.47;;;8.30;83.80;;;;;;4918407;29;20023;-68
2021/04/10 10:26:19;;;;;;;12.32;4.22;;;8.30;84.00;;;;;;4910748;29;20118;-68
2021/04/10 10:29:10;;;;;;;14.07;4.22;;;8.30;84.30;;;;;;4932214;29;20040;-68
2021/04/10 10:31:49;;;;;;;11.32;3.97;;;8.30;84.30;;;;;;4924386;28;20043;-67
2021/04/10 10:34:17;;;;;;;12.30;4.50;;;8.40;84.50;;;;;;4917064;29;20035;-68
2021/04/10 10:36:43;;;;;;;13.00;4.93;;;8.60;84.40;;;;;;4910292;29;20039;-68
2021/04/10 10:39:23;;;;;;;14.38;5.05;;;8.70;84.00;;;;;;4911220;29;20046;-68
2021/04/10 10:41:49;;;;;;;10.00;4.18;;;8.80;83.30;;;;;;4913870;29;20378;-68
2021/04/10 10:44:18;;;;;;;12.90;4.68;;;8.70;82.70;;;;;;4909128;29;20024;-69
2021/04/10 10:46:44;;;;;;;14.63;5.30;;;8.70;83.20;;;;;;4910033;29;20409;-68
2021/04/10 10:49:11;;;;;;;16.45;6.03;;;8.70;83.40;;;;;;4918493;29;20067;-68
2021/04/10 10:51:41;;;;;;;15.65;5.03;;;8.80;83.80;;;;;;4917589;29;20042;-69
2021/04/10 10:54:07;;;;;;;17.77;5.22;;;8.80;82.40;;;;;;4889951;29;640023;-69
2021/04/10 10:56:34;;;;;;;11.95;4.60;;;8.70;82.50;;;;;;4910159;29;20045;-66
2021/04/10 10:59:01;;;;;;;13.48;5.40;;;8.60;82.80;;;;;;4926842;29;20028;-67
2021/04/10 11:01:36;;;;;;;11.65;5.03;;;8.60;83.00;;;;;;4947450;29;20041;-69
2021/04/10 11:04:12;;;;;;;11.15;4.65;;;8.60;83.20;;;;;;4935842;29;20032;-68
2021/04/10 11:06:43;;;;;;;13.77;3.97;;;8.50;83.10;;;;;;4933407;29;20053;-68
2021/04/10 11:09:11;;;;;;;14.65;4.50;;;8.40;83.50;;;;;;4934429;29;20031;-68
2021/04/10 11:11:40;;;;;;;14.13;4.72;;;8.40;84.30;;;;;;4930549;29;20050;-68
2021/04/10 11:14:06;;;;;;;16.13;5.07;;;8.40;84.80;;;;;;4931599;29;20126;-69
2021/04/10 11:16:32;;;;;;;12.82;6.10;;;8.50;85.00;;;;;;4934640;29;20058;-68
2021/04/10 11:18:59;;;;;;;13.55;5.95;;;8.50;84.80;;;;;;4936803;29;20020;-68
2021/04/10 11:21:30;;;;;;;13.52;6.45;;;8.50;85.30;;;;;;4933711;29;20075;-69
2021/04/10 11:24:00;;;;;;;18.75;8.05;;;8.50;85.60;;;;;;4928307;29;20032;-68
2021/04/10 11:26:49;;;;;;;19.45;7.22;;;8.30;86.00;;;;;;4932070;29;20035;-68
2021/04/10 11:29:27;;;;;;;13.75;6.53;;;8.30;86.70;;;;;;4947220;28;20027;-67
2021/04/10 11:32:13;;;;;;;23.50;8.85;;;8.30;86.90;;;;;;4933778;29;20163;-67
2021/04/10 11:34:48;;;;;;;17.05;9.20;;;8.20;87.20;;;;;;4936062;29;20070;-67
2021/04/10 11:37:16;;;;;;;19.90;9.98;;;8.20;88.00;;;;;;4933496;29;20564;-67
2021/04/10 11:39:56;;;;;;;21.65;10.65;;;8.10;88.50;;;;;;4936440;29;20035;-68
2021/04/10 11:42:38;;;;;;;18.60;10.50;;;8.00;89.10;;;;;;4928871;29;20119;-67
2021/04/10 11:45:21;;;;;;;27.00;11.73;;;7.90;89.30;;;;;;4932497;29;20023;-67
2021/04/10 11:47:47;;;;;;;21.92;11.65;;;7.80;89.90;;;;;;4948736;28;20023;-67
2021/04/10 11:50:19;;;;;;;20.48;11.70;;;7.80;90.10;;;;;;4935593;29;20497;-66
2021/04/10 11:52:49;;;;;;;20.00;11.27;;;7.80;90.20;;;;;;4934810;29;20381;-67
2021/04/10 11:55:19;;;;;;;19.88;11.70;;;7.70;90.30;;;;;;4931679;29;20048;-68
2021/04/10 11:57:57;;;;;;;24.27;12.27;;;7.70;90.50;;;;;;4945343;29;20087;-67
2021/04/10 12:00:25;;;;;;;25.70;13.25;;;7.60;90.60;;;;;;4934166;29;20102;-67
2021/04/10 12:02:51;;;;;;;23.02;12.50;;;7.60;90.80;;;;;;4934026;29;20034;-67
2021/04/10 12:05:27;;;;;;;23.10;13.25;;;7.60;91.00;;;;;;4934628;29;20091;-67
2021/04/10 12:08:23;;;;;;;28.58;14.07;;;7.60;91.10;;;;;;4933506;29;20102;-68
2021/04/10 12:10:55;;;;;;;26.23;13.70;;;7.70;91.20;;;;;;4916061;29;20042;-68
2021/04/10 12:13:22;;;;;;;25.30;15.17;;;7.70;91.30;;;;;;4933410;29;20023;-67
2021/04/10 12:16:06;;;;;;;32.42;17.35;;;7.80;91.30;;;;;;4933047;29;20082;-67
2021/04/10 12:18:32;;;;;;;29.33;16.85;;;7.70;91.30;;;;;;4933275;29;20118;-68
2021/04/10 12:21:01;;;;;;;33.08;17.95;;;7.70;91.40;;;;;;4932941;29;20115;-67
2021/04/10 12:23:27;;;;;;;34.60;19.67;;;7.60;91.50;;;;;;4932564;29;20019;-67
2021/04/10 12:25:53;;;;;;;34.38;20.55;;;7.60;91.70;;;;;;4934824;29;20063;-67
2021/04/10 12:28:19;;;;;;;33.17;20.92;;;7.60;91.80;;;;;;4933821;29;20355;-67
2021/04/10 12:30:46;;;;;;;41.92;22.92;;;7.60;91.80;;;;;;4932649;29;20043;-67
2021/04/10 12:33:12;;;;;;;34.67;20.80;;;7.50;91.90;;;;;;4916445;29;20046;-67
2021/04/10 12:35:37;;;;;;;40.92;22.40;;;7.50;92.00;;;;;;4933129;29;20448;-67
2021/04/10 12:38:03;;;;;;;35.42;22.77;;;7.50;92.00;;;;;;4932906;29;20031;-67
2021/04/10 12:40:30;;;;;;;36.90;21.10;;;7.50;92.00;;;;;;4934195;29;20058;-66
2021/04/10 12:42:55;;;;;;;36.92;21.80;;;7.40;92.10;;;;;;4931462;29;20386;-67
2021/04/10 12:45:21;;;;;;;37.05;24.48;;;7.40;92.30;;;;;;4932974;29;20039;-66
2021/04/10 12:47:47;;;;;;;31.70;20.27;;;7.40;92.40;;;;;;4932631;29;20024;-66
2021/04/10 12:50:17;;;;;;;39.47;22.48;;;7.40;92.50;;;;;;4933532;29;20363;-67
2021/04/10 12:52:43;;;;;;;38.30;22.88;;;7.40;92.50;;;;;;4932371;29;20023;-66
2021/04/10 12:55:09;;;;;;;36.22;21.50;;;7.40;92.50;;;;;;4933451;29;20134;-67
2021/04/10 12:57:35;;;;;;;43.70;25.15;;;7.40;92.50;;;;;;4933392;29;20129;-67
2021/04/10 13:00:01;;;;;;;38.47;23.58;;;7.30;92.60;;;;;;4937985;29;20493;-67
2021/04/10 13:02:26;;;;;;;40.10;25.83;;;7.30;92.70;;;;;;4931030;29;20036;-66
2021/04/10 13:04:52;;;;;;;39.38;24.73;;;7.30;93.10;;;;;;4925985;29;20036;-67
2021/04/10 13:07:18;;;;;;;36.85;24.17;;;7.20;92.90;;;;;;4931562;29;20052;-66
2021/04/10 13:09:44;;;;;;;37.25;24.17;;;7.20;93.00;;;;;;4932236;29;20114;-66
2021/04/10 13:12:14;;;;;;;40.47;23.05;;;7.30;93.10;;;;;;4933532;29;20101;-67
2021/04/10 13:14:43;;;;;;;42.15;23.00;;;7.30;93.10;;;;;;4929282;29;20425;-66
2021/04/10 13:17:11;;;;;;;33.20;19.67;;;7.30;93.20;;;;;;4933546;29;20031;-68
2021/04/10 13:19:37;;;;;;;33.92;20.08;;;7.30;93.10;;;;;;4929599;29;20363;-67
2021/04/10 13:22:03;;;;;;;35.53;21.23;;;7.30;93.20;;;;;;4931619;29;20040;-68
2021/04/10 13:24:29;;;;;;;35.92;20.77;;;7.30;93.30;;;;;;4930323;29;20048;-68
2021/04/10 13:26:55;;;;;;;34.92;21.48;;;7.20;93.20;;;;;;4915878;29;20042;-66
2021/04/10 13:29:21;;;;;;;37.03;21.27;;;7.20;93.30;;;;;;4925018;29;20036;-66
2021/04/10 13:31:47;;;;;;;28.48;17.08;;;7.20;93.30;;;;;;4927697;29;20032;-68
2021/04/10 13:34:14;;;;;;;29.23;18.58;;;7.30;93.40;;;;;;4926721;29;20034;-68
2021/04/10 13:36:43;;;;;;;33.20;18.75;;;7.20;93.20;;;;;;4924887;29;20049;-68
2021/04/10 13:39:10;;;;;;;30.40;18.00;;;7.20;93.30;;;;;;4924281;29;20020;-66
2021/04/10 13:41:37;;;;;;;29.92;17.77;;;7.10;93.40;;;;;;4927319;29;20031;-68
2021/04/10 13:44:04;;;;;;;35.30;19.92;;;7.10;93.60;;;;;;4926165;29;20898;-68
2021/04/10 13:46:30;;;;;;;32.33;20.17;;;7.10;93.60;;;;;;4929273;29;20039;-67
2021/04/10 13:48:56;;;;;;;32.72;22.13;;;7.20;93.60;;;;;;4927760;29;20427;-67
2021/04/10 13:51:22;;;;;;;42.90;24.30;;;7.20;93.60;;;;;;4931706;29;20103;-67
2021/04/10 13:53:49;;;;;;;36.83;20.70;;;7.20;93.60;;;;;;4930245;29;20381;-67
2021/04/10 13:56:14;;;;;;;34.40;19.02;;;7.20;93.70;;;;;;4928247;29;20035;-66
2021/04/10 13:58:40;;;;;;;35.47;20.45;;;7.20;93.80;;;;;;4929320;29;20038;-66
2021/04/10 14:01:05;;;;;;;35.20;19.13;;;7.20;93.80;;;;;;4929400;29;20052;-66
2021/04/10 14:03:31;;;;;;;40.78;19.98;;;7.20;93.80;;;;;;4928604;29;21547;-67
2021/04/10 14:05:58;;;;;;;28.73;16.17;;;7.10;93.80;;;;;;4929320;29;20378;-67
2021/04/10 14:08:23;;;;;;;34.75;18.98;;;7.10;93.80;;;;;;4927429;29;20034;-67
2021/04/10 14:10:50;;;;;;;28.30;16.33;;;7.10;93.90;;;;;;4929446;29;20448;-67
2021/04/10 14:13:16;;;;;;;32.03;16.55;;;7.10;93.90;;;;;;4936568;29;20386;-67
2021/04/10 14:15:42;;;;;;;27.33;14.45;;;7.10;94.00;;;;;;4937807;29;20043;-67
2021/04/10 14:18:09;;;;;;;28.63;15.55;;;7.10;94.00;;;;;;4936172;29;20086;-67
2021/04/10 14:20:38;;;;;;;31.95;14.15;;;7.10;94.00;;;;;;4929050;29;20035;-67
2021/04/10 14:23:05;;;;;;;20.92;12.80;;;7.10;94.00;;;;;;4932711;29;20032;-67
2021/04/10 14:25:33;;;;;;;27.60;15.13;;;7.10;94.20;;;;;;4929188;29;20079;-67
2021/04/10 14:27:59;;;;;;;24.67;14.35;;;7.10;94.10;;;;;;4930756;29;20091;-68
2021/04/10 14:30:30;;;;;;;25.70;14.60;;;7.10;94.20;;;;;;4931942;29;20028;-67
2021/04/10 14:32:56;;;;;;;26.88;15.20;;;7.20;94.20;;;;;;4928846;29;20028;-67
2021/04/10 14:35:27;;;;;;;26.58;14.75;;;7.20;94.20;;;;;;4934745;29;20086;-67
2021/04/10 14:37:53;;;;;;;25.20;13.60;;;7.20;94.20;;;;;;4933233;29;20066;-67
2021/04/10 14:40:19;;;;;;;23.85;12.35;;;7.20;94.20;;;;;;4931001;29;20106;-67
2021/04/10 14:42:45;;;;;;;27.88;14.32;;;7.20;94.10;;;;;;4933100;29;20031;-68
2021/04/10 14:45:12;;;;;;;21.60;12.73;;;7.20;94.10;;;;;;4929027;29;20028;-68
2021/04/10 14:47:37;;;;;;;26.20;15.05;;;7.10;94.10;;;;;;4934910;29;20031;-68
2021/04/10 14:50:07;;;;;;;22.60;13.30;;;7.10;94.10;;;;;;4932999;29;20670;-67
2021/04/10 14:52:33;;;;;;;32.22;14.73;;;7.10;94.20;;;;;;4937163;29;20414;-68
2021/04/10 14:55:00;;;;;;;21.98;11.90;;;7.10;94.30;;;;;;4936720;29;20040;-67
2021/04/10 14:57:26;;;;;;;21.63;12.57;;;7.00;94.30;;;;;;4933159;29;20032;-67
2021/04/10 14:59:51;;;;;;;26.92;12.85;;;7.00;94.30;;;;;;4933774;29;20050;-68